Time;durP1;ratioP1;P1;durP2;ratioP2;P2;SDS_P1;SDS_P2;PMS_P1;PMS_P2;Temp;Humidity;BMP_temperature;BMP_pressure;BME280_temperature;BME280_humidity;BME280_pressure;Samples;Min_cycle;Max_cycle;Signal;HPM_P1;HPM_P2
2022/10/30 06:10:16;;;;;;;10.85;3.55;;;;;;;11.59;100.00;99343.14;1590347;89;21035;-72
2022/10/30 06:13:04;;;;;;;12.93;4.37;;;;;;;11.59;100.00;99351.39;1590184;89;20936;-71
2022/10/30 06:15:33;;;;;;;9.95;4.00;;;;;;;11.58;100.00;99335.45;1600321;88;26333;-73
2022/10/30 06:18:00;;;;;;;18.57;4.12;;;;;;;11.59;100.00;99336.27;1606955;88;21797;-72
2022/10/30 06:20:29;;;;;;;9.95;3.37;;;;;;;11.59;100.00;99326.08;1609219;87;20959;-75
2022/10/30 06:23:14;;;;;;;14.25;4.58;;;;;;;11.61;100.00;99337.31;1601165;88;21085;-73
2022/10/30 06:25:46;;;;;;;16.10;4.85;;;;;;;11.60;100.00;99346.13;1601951;89;21006;-73
2022/10/30 06:28:14;;;;;;;20.00;4.90;;;;;;;11.61;100.00;99351.06;1554257;89;21596;-76
2022/10/30 06:30:43;;;;;;;12.45;4.42;;;;;;;11.62;100.00;99351.30;1573475;91;21622;-73
2022/10/30 06:33:10;;;;;;;14.58;4.55;;;;;;;11.63;100.00;99356.47;1585185;89;20924;-71
2022/10/30 06:35:40;;;;;;;10.45;4.10;;;;;;;11.64;100.00;99347.66;1610299;88;21494;-73
2022/10/30 06:38:08;;;;;;;11.93;4.20;;;;;;;11.65;100.00;99348.70;1600629;88;21070;-76
2022/10/30 06:40:36;;;;;;;11.10;4.53;;;;;;;11.68;100.00;99343.92;1601729;89;21046;-72
2022/10/30 06:43:21;;;;;;;10.63;3.77;;;;;;;11.71;100.00;99343.27;1609209;88;21410;-71
2022/10/30 06:45:56;;;;;;;5.15;3.58;;;;;;;11.72;100.00;99345.45;1600766;88;20999;-74
2022/10/30 06:48:22;;;;;;;10.25;3.45;;;;;;;11.72;100.00;99342.70;1583106;89;20886;-71
2022/10/30 06:50:56;;;;;;;12.28;3.33;;;;;;;11.73;100.00;99345.13;1607956;88;21549;-73
2022/10/30 06:53:24;;;;;;;9.30;3.50;;;;;;;11.74;100.00;99339.05;1604933;88;20954;-73
2022/10/30 06:55:58;;;;;;;10.88;3.70;;;;;;;11.78;100.00;99342.80;1608373;87;21175;-72
2022/10/30 06:58:37;;;;;;;9.25;3.33;;;;;;;11.81;100.00;99349.83;1600356;88;20974;-72
2022/10/30 07:01:06;;;;;;;8.78;3.30;;;;;;;11.83;99.95;99342.62;1596778;88;20994;-72
2022/10/30 07:03:51;;;;;;;9.50;3.50;;;;;;;11.82;99.73;99347.88;1600155;86;21058;-73
2022/10/30 07:06:18;;;;;;;6.35;3.10;;;;;;;11.80;99.43;99344.08;1625671;87;21467;-72
2022/10/30 07:08:45;;;;;;;7.62;4.15;;;;;;;11.81;99.09;99336.64;1614378;87;21160;-72
2022/10/30 07:11:14;;;;;;;12.55;5.60;;;;;;;11.79;99.74;99349.91;1610135;87;21118;-76
2022/10/30 07:14:02;;;;;;;9.38;4.17;;;;;;;11.77;100.00;99350.23;1603351;88;20952;-79
2022/10/30 07:16:38;;;;;;;10.23;3.80;;;;;;;11.76;100.00;99358.22;1608269;87;38883;-77
2022/10/30 07:19:04;;;;;;;8.15;3.77;;;;;;;11.73;100.00;99349.25;1618256;88;21020;-76
2022/10/30 07:21:33;;;;;;;13.85;3.90;;;;;;;11.77;99.97;99353.56;1619177;88;21172;-76
2022/10/30 07:24:02;;;;;;;11.48;4.28;;;;;;;11.82;99.96;99356.94;1630426;87;21500;-77
2022/10/30 07:26:37;;;;;;;9.25;3.77;;;;;;;11.91;99.74;99356.91;1601846;88;21459;-76
2022/10/30 07:29:05;;;;;;;12.33;4.60;;;;;;;12.07;98.39;99346.17;1612201;88;20966;-76
2022/10/30 07:31:38;;;;;;;12.60;4.80;;;;;;;12.22;98.41;99348.34;1611699;87;21048;-76
2022/10/30 07:34:07;;;;;;;15.35;3.95;;;;;;;12.33;97.45;99348.78;1598757;88;21801;-76
2022/10/30 07:36:36;;;;;;;18.62;5.25;;;;;;;12.42;96.19;99345.41;1625685;86;21019;-77
2022/10/30 07:39:04;;;;;;;11.95;4.00;;;;;;;12.56;96.36;99349.53;1630375;86;21540;-77
2022/10/30 07:41:34;;;;;;;7.22;3.20;;;;;;;12.70;94.48;99347.91;1603310;88;21047;-77
2022/10/30 07:44:14;;;;;;;6.10;3.60;;;;;;;12.81;93.55;99345.54;1606230;87;21228;-77
2022/10/30 07:46:43;;;;;;;13.45;4.40;;;;;;;12.92;92.63;99346.75;1627881;88;21876;-77
2022/10/30 07:49:12;;;;;;;11.48;4.37;;;;;;;12.95;91.35;99348.03;1612775;87;20964;-76
2022/10/30 07:51:44;;;;;;;;;;;;;;;12.95;90.11;99342.52;1604724;88;21154;-77
2022/10/30 07:54:12;;;;;;;8.38;3.67;;;;;;;12.88;89.71;99356.26;1608394;87;20168;-77
2022/10/30 07:56:38;;;;;;;10.05;3.50;;;;;;;12.83;86.92;99340.50;1611427;87;21053;-77
2022/10/30 07:59:22;;;;;;;6.35;2.40;;;;;;;12.78;85.82;99340.70;1590915;88;21817;-75
2022/10/30 08:02:09;;;;;;;10.58;4.05;;;;;;;12.76;86.04;99349.86;1604975;89;21047;-77
2022/10/30 08:04:54;;;;;;;9.05;3.80;;;;;;;12.77;86.30;99352.86;1602255;88;21033;-76
2022/10/30 08:07:40;;;;;;;11.90;4.83;;;;;;;12.77;86.39;99356.42;1614935;88;21011;-76
2022/10/30 08:10:12;;;;;;;16.85;3.72;;;;;;;12.80;87.09;99366.77;1597985;87;20964;-77
2022/10/30 08:12:42;;;;;;;10.33;4.40;;;;;;;12.85;87.48;99362.44;1610632;88;21213;-77
2022/10/30 08:15:10;;;;;;;10.88;3.72;;;;;;;12.88;87.53;99367.28;1608116;87;20922;-77
2022/10/30 08:17:43;;;;;;;14.58;3.35;;;;;;;12.99;85.31;99359.42;1604958;88;20978;-77
2022/10/30 08:20:13;;;;;;;9.43;1.95;;;;;;;13.19;84.27;99362.78;1617688;87;21508;-76
2022/10/30 08:22:55;;;;;;;8.08;3.05;;;;;;;13.35;83.46;99357.99;1582676;90;20932;-77
2022/10/30 08:25:27;;;;;;;4.15;1.40;;;;;;;13.42;79.54;99337.00;1611523;87;21147;-77
2022/10/30 08:27:58;;;;;;;13.90;2.05;;;;;;;13.77;78.23;99349.05;1600532;89;21008;-80
2022/10/30 08:30:36;;;;;;;8.28;1.72;;;;;;;14.35;76.15;99355.31;1606686;86;21016;-79
2022/10/30 08:33:06;;;;;;;9.75;1.32;;;;;;;14.70;74.17;99357.02;1593723;88;21076;-78
2022/10/30 08:35:51;;;;;;;7.12;1.60;;;;;;;14.95;73.34;99350.88;1597156;88;21032;-79
2022/10/30 08:38:18;;;;;;;3.40;1.20;;;;;;;15.04;71.00;99346.79;1614556;87;21244;-77
2022/10/30 08:40:46;;;;;;;7.33;2.35;;;;;;;14.98;70.25;99339.92;1612839;88;21167;-77
2022/10/30 08:43:13;;;;;;;9.90;2.22;;;;;;;14.94;71.32;99347.30;1622705;87;21109;-77
2022/10/30 08:45:40;;;;;;;4.15;1.42;;;;;;;14.93;69.51;99342.93;1621360;88;21031;-77
2022/10/30 08:48:11;;;;;;;5.87;1.00;;;;;;;14.87;70.05;99345.70;1619731;87;21025;-80
2022/10/30 08:50:39;;;;;;;7.90;1.57;;;;;;;14.81;69.72;99346.53;1600879;89;21082;-78
2022/10/30 08:53:09;;;;;;;4.33;1.30;;;;;;;14.76;70.39;99346.77;1595946;90;20926;-76
2022/10/30 08:55:37;;;;;;;4.97;1.70;;;;;;;14.77;70.56;99347.57;1594603;90;21025;-73
2022/10/30 08:58:06;;;;;;;4.35;1.60;;;;;;;14.90;69.93;99351.92;1596158;89;21531;-73
2022/10/30 09:00:34;;;;;;;7.97;2.10;;;;;;;15.00;68.63;99360.31;1595752;90;21914;-72
2022/10/30 09:03:05;;;;;;;;;;;;;;;14.93;68.54;99355.37;1598253;89;21147;-73
2022/10/30 09:05:50;;;;;;;5.87;1.40;;;;;;;14.82;68.39;99352.28;1595827;90;20462;-73
2022/10/30 09:08:17;;;;;;;5.87;1.72;;;;;;;14.71;68.74;99355.30;1594165;89;21614;-74
2022/10/30 09:10:57;;;;;;;6.05;1.60;;;;;;;14.61;69.46;99348.05;1593295;88;20937;-73
2022/10/30 09:13:26;;;;;;;5.05;1.75;;;;;;;14.63;69.47;99359.56;1595876;89;21052;-73
2022/10/30 09:15:55;;;;;;;6.50;1.50;;;;;;;14.68;68.52;99354.61;1595956;90;21147;-72
2022/10/30 09:18:21;;;;;;;8.98;2.12;;;;;;;14.76;68.55;99345.38;1596087;90;21453;-72
2022/10/30 09:20:49;;;;;;;8.60;2.00;;;;;;;14.80;68.08;99349.06;1595831;89;21575;-72
2022/10/30 09:23:17;;;;;;;3.60;1.42;;;;;;;14.84;68.28;99354.12;1595751;90;20985;-72
2022/10/30 09:25:44;;;;;;;6.87;1.77;;;;;;;14.98;68.41;99339.92;1595796;90;21032;-71
2022/10/30 09:28:13;;;;;;;5.75;2.35;;;;;;;15.14;67.98;99344.91;1595873;89;21265;-74
2022/10/30 09:30:44;;;;;;;7.20;2.50;;;;;;;15.32;66.95;99351.54;1595998;89;21041;-72
2022/10/30 09:33:12;;;;;;;8.70;3.40;;;;;;;15.20;67.30;99344.89;1595749;89;20937;-72
2022/10/30 09:35:52;;;;;;;10.00;2.52;;;;;;;15.00;68.26;99350.05;1579151;89;20969;-74
2022/10/30 09:38:19;;;;;;;6.83;2.08;;;;;;;14.98;68.38;99352.94;1596219;89;20886;-72
2022/10/30 09:41:09;;;;;;;5.55;2.30;;;;;;;14.98;68.89;99344.65;1595691;89;21049;-73
2022/10/30 09:44:00;;;;;;;8.10;2.05;;;;;;;14.98;69.69;99344.07;1595880;90;20989;-70
2022/10/30 09:47:00;;;;;;;7.92;2.40;;;;;;;14.99;69.37;99349.83;1578219;89;21024;-72
2022/10/30 09:49:54;;;;;;;9.63;2.05;;;;;;;14.96;69.55;99349.72;1579225;90;20915;-74
2022/10/30 09:53:00;;;;;;;5.05;2.20;;;;;;;14.94;70.04;99349.27;1579530;90;20971;-70
2022/10/30 09:55:50;;;;;;;9.20;2.22;;;;;;;14.94;70.43;99351.45;1626709;86;22189;-74
2022/10/30 09:58:51;;;;;;;5.60;1.98;;;;;;;14.91;70.08;99348.58;1605035;88;21085;-74
2022/10/30 10:01:46;;;;;;;6.15;1.80;;;;;;;14.79;70.00;99345.27;1610965;88;21000;-71
2022/10/30 10:04:43;;;;;;;5.53;1.80;;;;;;;14.69;70.88;99344.36;1611897;87;21032;-70
2022/10/30 10:07:29;;;;;;;7.97;2.42;;;;;;;14.59;70.46;99326.88;1620129;87;20979;-72
2022/10/30 10:10:08;;;;;;;7.10;2.83;;;;;;;14.38;71.59;99343.00;1606162;87;21616;-72
2022/10/30 10:12:49;;;;;;;8.03;1.82;;;;;;;14.37;72.62;99343.34;1603685;88;21015;-74
2022/10/30 10:15:24;;;;;;;7.83;2.12;;;;;;;14.37;72.40;99337.83;1601681;88;21558;-75
2022/10/30 10:17:51;;;;;;;10.03;2.90;;;;;;;14.37;72.72;99340.01;1603685;88;20979;-70
2022/10/30 10:20:32;;;;;;;5.33;1.75;;;;;;;14.38;73.58;99342.19;1607733;88;21490;-71
2022/10/30 10:23:05;;;;;;;10.05;2.60;;;;;;;14.36;73.03;99335.64;1605004;88;21281;-71
2022/10/30 10:25:33;;;;;;;10.32;3.27;;;;;;;14.32;72.20;99336.09;1601078;88;21004;-74
2022/10/30 10:28:31;;;;;;;11.97;3.40;;;;;;;14.28;73.53;99332.42;1604081;88;21070;-75
2022/10/30 10:31:16;;;;;;;7.78;2.50;;;;;;;14.30;73.14;99336.21;1631145;86;21225;-73
2022/10/30 10:34:04;;;;;;;10.68;3.00;;;;;;;14.26;73.36;99338.05;1597860;88;20986;-72
2022/10/30 10:36:56;;;;;;;10.20;5.03;;;;;;;14.26;74.04;99336.67;1601571;88;21836;-72
2022/10/30 10:40:05;;;;;;;11.10;3.60;;;;;;;14.34;73.67;99338.52;1603568;87;20985;-88
2022/10/30 10:42:49;;;;;;;8.13;3.37;;;;;;;14.29;72.23;99332.64;1545204;90;21175;-77
2022/10/30 10:45:33;;;;;;;10.25;4.65;;;;;;;14.18;72.86;99334.25;1594205;88;21525;-76
2022/10/30 10:48:18;;;;;;;11.15;3.02;;;;;;;14.12;73.51;99330.11;1601979;88;21026;-75
2022/10/30 10:51:00;;;;;;;8.90;2.40;;;;;;;14.11;73.79;99326.55;1602693;87;21190;-77
2022/10/30 10:53:38;;;;;;;10.78;4.17;;;;;;;14.10;73.81;99322.75;1608142;87;21118;-76
2022/10/30 10:56:05;;;;;;;11.88;4.80;;;;;;;14.07;74.43;99321.48;1595218;89;21660;-74
2022/10/30 10:58:55;;;;;;;7.45;3.52;;;;;;;14.06;74.23;99325.96;1607909;88;21036;-72
2022/10/30 11:01:43;;;;;;;6.72;2.27;;;;;;;14.02;74.32;99325.04;1603697;88;21033;-73
2022/10/30 11:04:37;;;;;;;11.55;3.35;;;;;;;13.97;74.68;99326.64;1601403;88;21893;-75
2022/10/30 11:07:22;;;;;;;6.72;2.33;;;;;;;13.97;75.47;99330.78;1585525;88;21071;-77
2022/10/30 11:09:53;;;;;;;11.28;2.92;;;;;;;14.02;74.83;99325.84;1601849;87;21627;-77
2022/10/30 11:12:34;;;;;;;15.18;2.77;;;;;;;14.08;74.99;99326.42;1602981;86;21188;-76
2022/10/30 11:15:28;;;;;;;9.33;2.95;;;;;;;14.09;75.17;99316.42;1627973;86;21602;-77
2022/10/30 11:18:08;;;;;;;9.85;2.87;;;;;;;14.11;75.17;99320.22;1592101;88;21015;-76
2022/10/30 11:20:46;;;;;;;11.55;3.27;;;;;;;14.10;75.24;99322.75;1594002;88;21050;-80
2022/10/30 11:23:41;;;;;;;11.93;3.55;;;;;;;14.07;75.51;99315.96;1594006;88;21069;-80
2022/10/30 11:26:23;;;;;;;9.60;4.37;;;;;;;14.12;75.85;99317.11;1598288;89;20977;-72
2022/10/30 11:28:58;;;;;;;11.55;4.12;;;;;;;14.14;75.82;99302.97;1595506;90;20973;-74
2022/10/30 11:31:36;;;;;;;11.83;3.85;;;;;;;14.09;75.35;99326.66;1594615;90;21813;-73
2022/10/30 11:34:20;;;;;;;12.07;4.15;;;;;;;14.00;74.82;99317.67;1594326;90;21017;-72
2022/10/30 11:36:50;;;;;;;8.75;2.47;;;;;;;13.95;75.24;99313.77;1594580;90;21025;-74
2022/10/30 11:39:26;;;;;;;7.47;2.40;;;;;;;13.87;75.53;99303.06;1599599;89;21013;-73
2022/10/30 11:42:12;;;;;;;10.65;2.60;;;;;;;13.85;76.11;99302.05;1617598;88;21096;-72
2022/10/30 11:44:48;;;;;;;11.55;2.83;;;;;;;13.91;76.48;99301.22;1616941;87;21680;-73
2022/10/30 11:47:16;;;;;;;8.45;3.12;;;;;;;14.02;76.27;99293.30;1611289;88;21644;-72
2022/10/30 11:49:48;;;;;;;11.33;2.80;;;;;;;14.10;76.35;99289.63;1598067;89;21502;-72
2022/10/30 11:52:18;;;;;;;7.90;2.47;;;;;;;14.42;75.14;99284.58;1594284;90;21572;-73
2022/10/30 11:54:51;;;;;;;8.60;2.00;;;;;;;14.76;72.09;99287.36;1594360;90;21564;-72
2022/10/30 11:57:22;;;;;;;6.87;1.85;;;;;;;14.87;71.95;99284.91;1594602;90;21168;-73
2022/10/30 11:59:52;;;;;;;7.03;2.67;;;;;;;14.86;70.98;99290.21;1594385;90;20970;-72
2022/10/30 12:02:25;;;;;;;11.83;3.92;;;;;;;14.73;70.68;99286.67;1594326;89;20938;-72
2022/10/30 12:04:53;;;;;;;8.33;3.30;;;;;;;14.60;71.32;99285.09;1594818;90;20973;-73
2022/10/30 12:07:29;;;;;;;8.23;2.30;;;;;;;14.85;72.30;99289.98;1595728;90;21100;-72
2022/10/30 12:10:00;;;;;;;5.20;1.90;;;;;;;15.33;70.73;99275.71;1595885;88;21580;-73
2022/10/30 12:12:40;;;;;;;8.08;1.90;;;;;;;15.56;68.52;99287.00;1595534;90;21063;-74
2022/10/30 12:15:17;;;;;;;9.53;2.30;;;;;;;15.87;67.93;99282.88;1596145;90;20989;-74
2022/10/30 12:17:53;;;;;;;6.25;1.95;;;;;;;16.01;65.71;99271.36;1595995;90;21079;-73
2022/10/30 12:20:21;;;;;;;14.43;4.37;;;;;;;15.99;66.03;99273.09;1595587;89;20985;-73
2022/10/30 12:22:50;;;;;;;8.33;3.27;;;;;;;16.15;65.50;99266.16;1595624;88;20913;-74
2022/10/30 12:25:29;;;;;;;9.20;2.60;;;;;;;16.46;66.35;99254.98;1595664;90;20929;-74
2022/10/30 12:28:09;;;;;;;8.40;2.25;;;;;;;17.11;62.95;99258.55;1595918;89;21565;-75
2022/10/30 12:30:58;;;;;;;10.53;3.22;;;;;;;17.42;60.15;99264.46;1595916;90;20981;-75
2022/10/30 12:33:38;;;;;;;10.93;3.67;;;;;;;17.31;61.23;99256.55;1595314;90;21044;-75
2022/10/30 12:36:16;;;;;;;8.73;2.98;;;;;;;16.93;60.52;99256.80;1589902;89;21164;-75
2022/10/30 12:39:06;;;;;;;8.30;2.10;;;;;;;16.47;61.84;99257.18;1595491;89;20970;-75
2022/10/30 12:41:57;;;;;;;6.53;1.80;;;;;;;16.45;61.70;99253.39;1596194;89;20925;-78
2022/10/30 12:44:35;;;;;;;9.33;3.10;;;;;;;16.31;62.69;99265.52;1595910;89;21562;-70
2022/10/30 12:47:29;;;;;;;5.67;2.05;;;;;;;16.50;62.15;99260.03;1595846;90;21521;-70
2022/10/30 12:50:19;;;;;;;7.03;2.15;;;;;;;16.73;61.22;99257.98;1595867;90;21262;-71
2022/10/30 12:53:18;;;;;;;6.37;1.95;;;;;;;16.82;60.14;99253.80;1595445;89;21029;-71
2022/10/30 12:55:48;;;;;;;4.97;1.90;;;;;;;16.58;60.26;99254.65;1595949;89;21016;-71
2022/10/30 12:58:41;;;;;;;8.98;2.30;;;;;;;16.37;60.42;99259.13;1595812;89;21017;-70
2022/10/30 13:01:25;;;;;;;7.80;2.20;;;;;;;16.22;61.19;99264.91;1596023;89;21001;-70
2022/10/30 13:04:00;;;;;;;6.95;2.22;;;;;;;16.61;61.84;99266.39;1596036;90;21233;-70
2022/10/30 13:06:30;;;;;;;5.40;2.70;;;;;;;17.34;59.44;99262.72;1596071;90;21017;-68
2022/10/30 13:09:05;;;;;;;;;;;;;;;17.86;57.14;99252.98;1598223;90;20985;-69
2022/10/30 13:11:48;;;;;;;7.67;2.40;;;;;;;18.00;55.81;99258.74;1595764;88;20829;-68
2022/10/30 13:14:20;;;;;;;5.30;2.40;;;;;;;17.96;55.83;99248.16;1595799;89;21012;-73
2022/10/30 13:16:46;;;;;;;6.12;2.40;;;;;;;17.96;56.31;99253.13;1595768;90;21218;-75
2022/10/30 13:19:14;;;;;;;8.68;3.02;;;;;;;18.02;55.54;99248.86;1595707;90;20989;-74
2022/10/30 13:22:04;;;;;;;6.40;2.87;;;;;;;18.03;55.74;99259.39;1595859;90;21070;-73
2022/10/30 13:24:50;;;;;;;10.90;2.62;;;;;;;17.76;56.02;99262.14;1595938;90;20977;-76
2022/10/30 13:27:28;;;;;;;6.75;2.90;;;;;;;17.36;57.19;99261.77;1580378;89;21505;-66
2022/10/30 13:30:05;;;;;;;5.97;2.05;;;;;;;17.08;58.74;99258.69;1581624;90;21806;-67
2022/10/30 13:33:14;;;;;;;10.80;2.58;;;;;;;17.14;57.54;99266.12;1595381;89;20954;-71
2022/10/30 13:36:00;;;;;;;7.05;2.25;;;;;;;17.20;57.83;99260.50;1590837;90;21437;-73
2022/10/30 13:38:52;;;;;;;11.20;2.85;;;;;;;17.21;57.83;99267.66;1594648;90;21024;-73
2022/10/30 13:41:40;;;;;;;13.28;4.08;;;;;;;17.04;58.63;99267.52;1594561;90;20974;-72
2022/10/30 13:44:27;;;;;;;11.93;4.95;;;;;;;16.71;59.18;99260.31;1594422;90;21174;-70
2022/10/30 13:47:18;;;;;;;8.23;3.70;;;;;;;16.23;60.31;99262.37;1594344;90;21618;-69
2022/10/30 13:49:56;;;;;;;8.75;3.08;;;;;;;15.65;61.87;99266.30;1594559;90;21009;-71
2022/10/30 13:52:23;;;;;;;9.75;3.02;;;;;;;15.25;63.08;99273.91;1594444;90;20942;-70
2022/10/30 13:55:20;;;;;;;11.35;2.72;;;;;;;14.90;64.36;99267.63;1575141;90;21016;-71
2022/10/30 13:57:58;;;;;;;7.00;2.70;;;;;;;14.63;65.37;99267.82;1591471;90;21174;-70
2022/10/30 14:00:45;;;;;;;6.53;2.35;;;;;;;14.38;66.55;99270.39;1583947;89;21664;-72
2022/10/30 14:03:27;;;;;;;7.53;2.72;;;;;;;14.22;67.92;99275.81;1589743;89;21005;-72
2022/10/30 14:06:14;;;;;;;11.30;4.50;;;;;;;14.11;68.70;99279.62;1589495;89;21039;-69
2022/10/30 14:09:06;;;;;;;11.73;4.78;;;;;;;14.05;69.20;99271.91;1595528;88;21059;-71
2022/10/30 14:11:33;;;;;;;10.08;3.52;;;;;;;13.94;70.12;99277.66;1591187;87;21577;-71
2022/10/30 14:14:25;;;;;;;9.33;3.55;;;;;;;13.76;70.61;99275.72;1592481;89;21034;-71
2022/10/30 14:17:16;;;;;;;10.93;3.92;;;;;;;13.64;71.49;99275.13;1587685;88;26563;-72
2022/10/30 14:20:12;;;;;;;13.00;3.98;;;;;;;13.50;72.37;99293.94;1599200;87;21071;-72
2022/10/30 14:22:39;;;;;;;10.13;4.00;;;;;;;13.41;73.25;99285.75;1594225;88;21075;-71
2022/10/30 14:25:14;;;;;;;17.35;4.15;;;;;;;13.32;73.91;99288.37;1602542;88;21562;-72
2022/10/30 14:27:42;;;;;;;13.45;3.62;;;;;;;13.26;74.21;99284.24;1610730;88;20964;-71
2022/10/30 14:30:18;;;;;;;10.20;3.10;;;;;;;13.19;74.84;99271.81;1597025;88;20980;-71
2022/10/30 14:32:51;;;;;;;13.48;3.80;;;;;;;13.13;75.10;99280.03;1600770;87;21136;-72
2022/10/30 14:35:34;;;;;;;15.38;4.15;;;;;;;13.06;74.95;99288.05;1567265;88;21071;-71
2022/10/30 14:38:14;;;;;;;10.48;3.62;;;;;;;13.01;75.23;99279.98;1579700;89;20891;-70
2022/10/30 14:40:47;;;;;;;11.10;3.50;;;;;;;12.98;74.96;99278.47;1602040;88;21033;-70
2022/10/30 14:43:20;;;;;;;;;;;;;;;12.93;74.91;99274.55;1604336;88;21040;-70
2022/10/30 14:45:51;;;;;;;13.68;4.30;;;;;;;12.86;75.03;99277.27;1612643;88;20188;-70
2022/10/30 14:48:25;;;;;;;15.67;4.93;;;;;;;12.78;75.52;99274.59;1574617;89;21530;-71
2022/10/30 14:51:09;;;;;;;12.25;4.83;;;;;;;12.72;75.95;99273.98;1603774;88;21117;-74
2022/10/30 14:53:43;;;;;;;13.88;3.87;;;;;;;12.65;76.12;99264.69;1604856;88;21150;-69
2022/10/30 14:56:35;;;;;;;11.38;3.40;;;;;;;12.55;77.05;99263.13;1623337;86;21093;-70
2022/10/30 14:59:17;;;;;;;11.20;3.90;;;;;;;12.47;77.10;99265.38;1622938;86;21088;-69
2022/10/30 15:02:13;;;;;;;8.48;3.35;;;;;;;12.39;77.64;99264.87;1602870;88;21065;-69
2022/10/30 15:05:12;;;;;;;8.53;4.35;;;;;;;12.28;78.15;99265.83;1603120;89;21616;-69
2022/10/30 15:07:56;;;;;;;7.85;3.92;;;;;;;12.18;78.83;99276.65;1599177;88;21047;-71
2022/10/30 15:10:33;;;;;;;10.35;4.28;;;;;;;12.11;79.59;99272.84;1617676;86;21035;-71
2022/10/30 15:13:11;;;;;;;11.28;3.70;;;;;;;12.06;80.07;99271.08;1604708;87;21043;-70
2022/10/30 15:15:37;;;;;;;11.55;3.67;;;;;;;12.03;80.32;99264.87;1584546;88;21095;-71
2022/10/30 15:18:18;;;;;;;14.40;4.37;;;;;;;12.03;80.85;99272.31;1602203;88;22663;-76
2022/10/30 15:20:51;;;;;;;10.75;4.72;;;;;;;12.01;81.03;99272.64;1610930;87;20958;-72
2022/10/30 15:23:26;;;;;;;14.85;5.80;;;;;;;11.96;81.44;99276.16;1604092;88;21605;-72
2022/10/30 15:25:54;;;;;;;13.70;5.55;;;;;;;11.90;81.85;99273.58;1602224;88;20986;-71
2022/10/30 15:28:25;;;;;;;17.42;5.65;;;;;;;11.88;82.20;99267.61;1603549;88;21570;-74
2022/10/30 15:31:05;;;;;;;12.53;5.62;;;;;;;11.85;82.56;99253.71;1611892;88;22033;-73
2022/10/30 15:33:38;;;;;;;17.98;7.10;;;;;;;11.81;82.94;99272.81;1602238;88;21466;-72
2022/10/30 15:36:17;;;;;;;20.82;7.87;;;;;;;11.74;83.48;99272.49;1603893;88;20998;-70
2022/10/30 15:38:44;;;;;;;16.95;6.42;;;;;;;11.68;83.58;99268.31;1592521;89;21133;-79
2022/10/30 15:41:11;;;;;;;15.08;5.92;;;;;;;11.61;84.17;99272.14;1610707;87;22556;-75
2022/10/30 15:43:39;;;;;;;14.30;5.20;;;;;;;11.53;84.50;99267.50;1602936;88;21163;-77
2022/10/30 15:46:09;;;;;;;10.82;4.22;;;;;;;11.46;84.98;99260.33;1603117;88;21033;-75
2022/10/30 15:48:38;;;;;;;16.30;4.37;;;;;;;11.37;85.68;99271.34;1610905;87;21008;-70
2022/10/30 15:51:20;;;;;;;14.53;4.05;;;;;;;11.29;85.89;99274.92;1575655;89;20987;-75
2022/10/30 15:53:50;;;;;;;10.35;4.28;;;;;;;11.21;86.49;99276.55;1604087;87;21600;-74
2022/10/30 15:56:26;;;;;;;12.07;5.08;;;;;;;11.14;86.95;99269.37;1610069;87;21234;-73
2022/10/30 15:58:59;;;;;;;15.80;5.28;;;;;;;11.08;87.32;99275.36;1601940;88;21027;-78
2022/10/30 16:01:37;;;;;;;10.20;4.53;;;;;;;11.02;87.92;99274.72;1611299;88;21091;-72
2022/10/30 16:04:06;;;;;;;16.17;5.17;;;;;;;10.97;88.35;99274.11;1600615;87;21023;-71
2022/10/30 16:06:32;;;;;;;10.00;4.92;;;;;;;10.91;88.87;99285.26;1590393;89;20963;-73
2022/10/30 16:08:58;;;;;;;17.60;5.70;;;;;;;10.86;88.98;99283.24;1602286;87;21198;-72
2022/10/30 16:11:25;;;;;;;19.10;5.15;;;;;;;10.80;89.33;99289.46;1613424;87;21099;-70
2022/10/30 16:13:52;;;;;;;10.93;4.10;;;;;;;10.76;89.72;99296.73;1603352;87;21224;-77
2022/10/30 16:16:29;;;;;;;15.32;4.80;;;;;;;10.72;90.05;99295.76;1583633;87;21049;-75
2022/10/30 16:19:01;;;;;;;12.80;5.08;;;;;;;10.71;90.40;99296.08;1612268;87;21443;-72
2022/10/30 16:21:30;;;;;;;13.62;5.50;;;;;;;10.68;90.68;99294.78;1599631;89;21608;-73
2022/10/30 16:24:01;;;;;;;12.55;4.62;;;;;;;10.65;91.13;99296.80;1590035;90;21107;-79
2022/10/30 16:26:33;;;;;;;14.07;5.08;;;;;;;10.61;91.56;99297.20;1609384;88;20951;-75
2022/10/30 16:29:17;;;;;;;11.95;4.55;;;;;;;10.59;91.91;99291.23;1602185;87;21010;-74
2022/10/30 16:31:48;;;;;;;12.95;4.08;;;;;;;10.55;92.34;99293.00;1594689;89;21074;-74
2022/10/30 16:34:35;;;;;;;13.53;3.70;;;;;;;10.50;92.84;99295.90;1585796;89;21250;-73
2022/10/30 16:37:06;;;;;;;11.00;4.00;;;;;;;10.46;93.60;99293.55;1598456;89;21495;-72
2022/10/30 16:39:33;;;;;;;12.18;4.72;;;;;;;10.44;94.11;99298.55;1599259;89;21046;-70
2022/10/30 16:42:00;;;;;;;15.13;4.58;;;;;;;10.40;94.21;99291.52;1600693;88;21011;-73
2022/10/30 16:44:32;;;;;;;10.53;4.60;;;;;;;10.38;94.37;99291.06;1608313;88;21022;-72
2022/10/30 16:47:20;;;;;;;10.38;4.37;;;;;;;10.38;94.71;99298.49;1619516;88;21240;-73
2022/10/30 16:49:57;;;;;;;15.15;5.22;;;;;;;10.33;94.81;99298.64;1604974;88;20930;-76
2022/10/30 16:52:32;;;;;;;10.50;4.17;;;;;;;10.25;95.14;99296.12;1600118;89;20968;-73
2022/10/30 16:55:14;;;;;;;13.35;4.65;;;;;;;10.20;95.18;99290.22;1573510;91;20904;-73
2022/10/30 16:57:43;;;;;;;15.23;4.33;;;;;;;10.19;94.91;99285.02;1578599;88;21437;-76
2022/10/30 17:00:22;;;;;;;10.90;4.40;;;;;;;10.19;94.45;99280.91;1602697;88;21799;-73
2022/10/30 17:02:51;;;;;;;8.08;3.15;;;;;;;10.17;94.16;99281.23;1602855;89;21738;-74
2022/10/30 17:05:30;;;;;;;10.40;3.65;;;;;;;10.15;93.30;99273.88;1608375;88;20995;-78
2022/10/30 17:08:01;;;;;;;14.13;4.15;;;;;;;10.14;92.73;99276.94;1618120;88;20967;-73
2022/10/30 17:10:35;;;;;;;13.55;3.98;;;;;;;10.12;92.47;99273.70;1619628;87;21580;-73
2022/10/30 17:13:34;;;;;;;7.92;3.37;;;;;;;10.09;92.26;99264.19;1596979;89;21601;-73
2022/10/30 17:16:24;;;;;;;8.45;3.80;;;;;;;10.03;92.42;99261.34;1595946;89;20950;-75
2022/10/30 17:18:53;;;;;;;12.75;4.65;;;;;;;9.97;92.49;99261.25;1595926;89;20985;-73
2022/10/30 17:21:31;;;;;;;11.75;5.05;;;;;;;9.91;92.59;99261.95;1595925;89;21095;-74
2022/10/30 17:23:59;;;;;;;10.50;4.97;;;;;;;9.86;92.83;99252.50;1576782;90;20953;-73
2022/10/30 17:26:27;;;;;;;14.78;6.37;;;;;;;9.81;92.90;99266.95;1596194;89;21604;-73
2022/10/30 17:28:54;;;;;;;19.32;6.40;;;;;;;9.76;93.26;99265.16;1595912;90;21004;-71
2022/10/30 17:31:41;;;;;;;13.20;5.90;;;;;;;9.72;93.35;99262.00;1595840;89;20901;-73
2022/10/30 17:34:17;;;;;;;11.60;4.17;;;;;;;9.66;93.61;99253.67;1595470;90;20937;-71
2022/10/30 17:36:46;;;;;;;14.43;5.58;;;;;;;9.60;93.94;99262.03;1594638;90;20954;-72
2022/10/30 17:39:13;;;;;;;12.33;5.35;;;;;;;9.56;94.22;99259.67;1594697;90;21246;-72
2022/10/30 17:41:42;;;;;;;13.53;5.22;;;;;;;9.53;94.60;99263.61;1594340;90;20929;-73
2022/10/30 17:44:20;;;;;;;14.70;5.72;;;;;;;9.48;94.67;99262.37;1594735;90;21037;-73
2022/10/30 17:46:49;;;;;;;18.92;8.08;;;;;;;9.44;95.02;99258.64;1594616;90;20985;-73
2022/10/30 17:49:27;;;;;;;16.42;8.25;;;;;;;9.39;95.27;99260.15;1594994;90;21025;-74
2022/10/30 17:51:54;;;;;;;16.12;7.17;;;;;;;9.35;95.53;99257.80;1594641;90;21161;-77
2022/10/30 17:54:20;;;;;;;15.85;7.25;;;;;;;9.28;95.89;99253.56;1594690;90;20930;-73
2022/10/30 17:56:47;;;;;;;17.30;6.40;;;;;;;9.23;96.07;99250.99;1594670;90;20974;-73
2022/10/30 17:59:13;;;;;;;13.85;6.10;;;;;;;9.17;96.14;99250.06;1594633;90;20953;-73
2022/10/30 18:01:41;;;;;;;14.00;6.97;;;;;;;9.09;96.59;99244.78;1594624;90;21041;-74
2022/10/30 18:04:12;;;;;;;13.78;5.58;;;;;;;9.06;97.64;99245.41;1591770;89;21655;-73
2022/10/30 18:06:39;;;;;;;12.23;4.95;;;;;;;9.03;98.01;99243.30;1615762;87;21035;-75
2022/10/30 18:09:05;;;;;;;15.15;5.70;;;;;;;9.00;97.93;99247.22;1608317;88;20977;-74
2022/10/30 18:11:32;;;;;;;12.90;5.10;;;;;;;8.97;98.11;99247.28;1605234;87;20942;-74
2022/10/30 18:13:59;;;;;;;13.55;4.60;;;;;;;8.94;98.30;99247.34;1585461;89;21634;-74
2022/10/30 18:16:27;;;;;;;12.70;4.67;;;;;;;8.93;98.58;99243.55;1603042;88;21465;-74
2022/10/30 18:18:57;;;;;;;12.47;4.70;;;;;;;8.91;98.97;99245.23;1604233;87;21164;-73
2022/10/30 18:21:26;;;;;;;13.00;5.45;;;;;;;8.90;99.21;99242.25;1601878;87;21486;-75